createdAt,value
2018-10-04T00:01:45.909Z,1.77
2018-10-04T00:04:13.903Z,1.60
2018-10-04T00:06:41.840Z,1.40
2018-10-04T00:09:10.260Z,1.50
2018-10-04T00:11:38.336Z,1.07
2018-10-04T00:14:06.399Z,1.70
2018-10-04T00:16:34.414Z,1.57
2018-10-04T00:19:02.366Z,1.70
2018-10-04T00:21:30.715Z,1.90
2018-10-04T00:23:58.685Z,1.33
2018-10-04T00:26:26.620Z,1.60
2018-10-04T00:28:54.625Z,1.60
2018-10-04T00:31:22.704Z,1.50
2018-10-04T00:33:50.711Z,1.67
2018-10-04T00:36:18.712Z,1.40
2018-10-04T00:38:46.735Z,0.83
2018-10-04T00:41:14.686Z,1.97
2018-10-04T00:43:46.233Z,1.80
2018-10-04T00:46:14.196Z,1.63
2018-10-04T00:48:42.486Z,1.40
2018-10-04T00:51:10.420Z,1.47
2018-10-04T00:53:38.531Z,1.60
2018-10-04T00:56:06.497Z,1.97
2018-10-04T00:58:34.430Z,1.40
2018-10-04T01:01:02.431Z,1.73
2018-10-04T01:03:30.915Z,2.00
2018-10-04T01:05:59.096Z,1.77
2018-10-04T01:08:27.026Z,2.00
2018-10-04T01:10:55.234Z,1.60
2018-10-04T01:13:23.238Z,1.60
2018-10-04T01:15:51.226Z,1.33
2018-10-04T01:18:30.866Z,1.97
2018-10-04T01:20:58.901Z,1.40
2018-10-04T01:23:28.082Z,1.30
2018-10-04T01:25:56.166Z,1.30
2018-10-04T01:28:24.135Z,1.90
2018-10-04T01:30:52.302Z,1.40
2018-10-04T01:33:20.577Z,1.80
2018-10-04T01:35:48.596Z,1.20
2018-10-04T01:38:16.529Z,1.17
2018-10-04T01:40:44.493Z,1.17
2018-10-04T01:43:12.572Z,1.40
2018-10-04T01:45:40.939Z,1.90
2018-10-04T01:48:08.878Z,1.23
2018-10-04T01:50:36.884Z,1.80
2018-10-04T01:53:05.153Z,1.20
2018-10-04T01:55:33.234Z,1.53
2018-10-04T01:58:01.372Z,1.63
2018-10-04T02:00:29.383Z,1.23
2018-10-04T02:02:57.453Z,1.50
2018-10-04T02:05:25.521Z,1.43
2018-10-04T02:07:54.210Z,1.37
2018-10-04T02:10:22.685Z,1.70
2018-10-04T02:12:50.846Z,1.70
2018-10-04T02:15:18.904Z,1.53
2018-10-04T02:17:47.012Z,1.60
2018-10-04T02:20:15.134Z,1.50
2018-10-04T02:22:43.158Z,1.37
2018-10-04T02:25:11.425Z,1.50
2018-10-04T02:27:39.437Z,1.43
2018-10-04T02:30:07.370Z,1.50
2018-10-04T02:32:35.548Z,1.30
2018-10-04T02:35:03.728Z,1.63
2018-10-04T02:37:31.685Z,1.73
2018-10-04T02:39:59.757Z,1.83
2018-10-04T02:42:27.813Z,1.77
2018-10-04T02:44:59.632Z,1.50
2018-10-04T02:47:27.588Z,1.83
2018-10-04T02:49:55.833Z,1.50
2018-10-04T02:52:23.909Z,1.60
2018-10-04T02:54:57.608Z,1.73
2018-10-04T02:57:25.632Z,1.60
2018-10-04T02:59:53.590Z,1.90
2018-10-04T03:02:21.573Z,1.50
2018-10-04T03:04:49.514Z,2.00
2018-10-04T03:07:17.582Z,2.17
2018-10-04T03:09:45.506Z,1.87
2018-10-04T03:12:13.469Z,1.73
2018-10-04T03:14:41.478Z,2.30
2018-10-04T03:17:09.545Z,2.53
2018-10-04T03:19:37.688Z,1.73
2018-10-04T03:22:05.733Z,1.83
2018-10-04T03:24:33.829Z,2.03
2018-10-04T03:27:01.780Z,2.20
2018-10-04T03:29:29.907Z,2.20
2018-10-04T03:31:57.885Z,1.40
2018-10-04T03:34:26.121Z,2.40
2018-10-04T03:36:54.224Z,1.93
2018-10-04T03:39:22.165Z,2.60
2018-10-04T03:41:50.131Z,2.00
2018-10-04T03:44:18.229Z,2.07
2018-10-04T03:46:46.523Z,2.83
2018-10-04T03:49:14.584Z,2.40
2018-10-04T03:51:42.678Z,2.20
2018-10-04T03:54:10.929Z,2.53
2018-10-04T03:56:38.963Z,2.70
2018-10-04T03:59:06.905Z,2.60
2018-10-04T04:01:34.938Z,2.73
2018-10-04T04:04:03.107Z,2.77
2018-10-04T04:06:31.016Z,2.33
2018-10-04T04:08:59.055Z,2.60
2018-10-04T04:11:26.988Z,2.60
2018-10-04T04:13:55.105Z,2.60
2018-10-04T04:16:30.380Z,2.13
2018-10-04T04:18:58.359Z,2.80
2018-10-04T04:21:26.696Z,2.40
2018-10-04T04:23:54.669Z,3.00
2018-10-04T04:26:22.745Z,3.37
2018-10-04T04:28:51.527Z,2.70
2018-10-04T04:31:20.517Z,2.97
2018-10-04T04:33:48.999Z,2.60
2018-10-04T04:36:17.809Z,2.90
2018-10-04T04:38:46.368Z,3.53
2018-10-04T04:41:14.372Z,3.63
2018-10-04T04:43:42.685Z,3.63
2018-10-04T04:46:10.610Z,3.33
2018-10-04T04:48:38.657Z,5.93
2018-10-04T04:51:07.041Z,8.17
2018-10-04T04:53:37.043Z,5.30
2018-10-04T04:56:05.025Z,3.83
2018-10-04T04:58:32.993Z,3.90
2018-10-04T05:01:01.079Z,5.07
2018-10-04T05:03:29.339Z,3.77
2018-10-04T05:05:57.321Z,4.37
2018-10-04T05:08:25.251Z,4.40
2018-10-04T05:10:53.203Z,4.67
2018-10-04T05:13:21.221Z,3.70
2018-10-04T05:15:49.864Z,4.43
2018-10-04T05:18:17.874Z,5.00
2018-10-04T05:20:45.832Z,5.27
2018-10-04T05:23:13.833Z,5.47
2018-10-04T05:25:41.964Z,4.40
2018-10-04T05:28:09.954Z,4.47
2018-10-04T05:30:37.959Z,5.17
2018-10-04T05:33:05.969Z,5.20
2018-10-04T05:35:33.888Z,5.07
2018-10-04T05:38:01.828Z,5.93
2018-10-04T05:40:29.776Z,4.97
2018-10-04T05:42:57.747Z,8.40
2018-10-04T05:45:25.759Z,7.33
2018-10-04T05:47:57.422Z,5.17
2018-10-04T05:50:25.478Z,4.70
2018-10-04T05:52:53.577Z,4.03
2018-10-04T05:55:21.696Z,3.60
2018-10-04T05:57:49.695Z,10.67
2018-10-04T06:00:28.425Z,6.20
2018-10-04T06:02:56.536Z,4.13
2018-10-04T06:05:24.692Z,4.00
2018-10-04T06:07:52.531Z,3.50
2018-10-04T06:10:20.498Z,3.20
2018-10-04T06:12:48.448Z,2.83
2018-10-04T06:15:16.712Z,2.90
2018-10-04T06:17:44.481Z,4.00
2018-10-04T06:20:12.458Z,3.10
2018-10-04T06:22:40.497Z,3.27
2018-10-04T06:25:08.524Z,3.40
2018-10-04T06:27:36.601Z,3.30
2018-10-04T06:30:05.176Z,3.30
2018-10-04T06:32:33.221Z,3.30
2018-10-04T06:35:01.267Z,4.83
2018-10-04T06:37:29.263Z,3.73
2018-10-04T06:39:57.321Z,3.60
2018-10-04T06:42:25.255Z,2.47
2018-10-04T06:44:53.238Z,3.33
2018-10-04T06:47:21.230Z,4.00
2018-10-04T06:49:49.249Z,3.03
2018-10-04T06:52:17.215Z,3.33
2018-10-04T06:54:45.404Z,2.60
2018-10-04T06:57:13.464Z,3.03
2018-10-04T06:59:41.451Z,2.33
2018-10-04T07:02:09.500Z,3.30
2018-10-04T07:04:37.478Z,3.10
2018-10-04T07:07:05.541Z,2.50
2018-10-04T07:09:33.505Z,3.87
2018-10-04T07:12:02.198Z,3.80
2018-10-04T07:14:30.485Z,3.63
2018-10-04T07:16:58.487Z,4.10
2018-10-04T07:19:26.538Z,3.17
2018-10-04T07:21:54.549Z,4.37
2018-10-04T07:24:22.568Z,3.70
2018-10-04T07:26:50.567Z,3.17
2018-10-04T07:29:18.601Z,3.57
2018-10-04T07:31:48.986Z,3.80
2018-10-04T07:34:16.870Z,4.93
2018-10-04T07:36:44.977Z,4.20
2018-10-04T07:39:12.944Z,3.10
2018-10-04T07:41:40.880Z,3.60
2018-10-04T07:44:08.943Z,4.17
2018-10-04T07:46:37.360Z,3.50
2018-10-04T07:49:05.443Z,4.20
2018-10-04T07:51:33.393Z,3.10
2018-10-04T07:54:01.355Z,3.03
2018-10-04T07:56:29.483Z,3.07
2018-10-04T07:58:57.428Z,3.87
2018-10-04T08:01:25.503Z,4.10
2018-10-04T08:03:53.478Z,4.00
2018-10-04T08:06:21.680Z,3.20
2018-10-04T08:08:49.519Z,3.60
2018-10-04T08:11:17.578Z,3.50
2018-10-04T08:13:45.742Z,3.50
2018-10-04T08:16:13.693Z,4.00
2018-10-04T08:18:41.787Z,3.53
2018-10-04T08:21:09.879Z,4.77
2018-10-04T08:23:37.940Z,4.53
2018-10-04T08:26:05.931Z,5.93
2018-10-04T08:28:33.915Z,3.50
2018-10-04T08:31:02.081Z,3.90
2018-10-04T08:33:30.115Z,3.07
2018-10-04T08:35:58.265Z,3.57
2018-10-04T08:38:26.864Z,3.20
2018-10-04T08:40:54.819Z,3.07
2018-10-04T08:43:22.936Z,3.13
2018-10-04T08:45:50.988Z,3.07
2018-10-04T08:48:19.042Z,3.13
2018-10-04T08:50:55.040Z,3.47
2018-10-04T08:53:22.987Z,3.63
2018-10-04T08:55:51.031Z,2.70
2018-10-04T08:58:18.983Z,4.07
2018-10-04T09:00:47.007Z,4.20
2018-10-04T09:03:18.550Z,4.70
2018-10-04T09:05:47.154Z,3.20
2018-10-04T09:08:15.719Z,2.80
2018-10-04T09:10:44.001Z,4.20
2018-10-04T09:13:11.930Z,3.67
2018-10-04T09:15:39.942Z,3.93
2018-10-04T09:18:08.023Z,3.57
2018-10-04T09:20:35.976Z,3.90
2018-10-04T09:23:04.259Z,3.43
2018-10-04T09:25:32.265Z,3.57
2018-10-04T09:28:00.221Z,3.33
2018-10-04T09:30:34.034Z,2.33
2018-10-04T09:33:02.073Z,3.33
2018-10-04T09:35:30.729Z,3.33
2018-10-04T09:37:58.854Z,3.27
2018-10-04T09:40:26.875Z,2.93
2018-10-04T09:42:54.810Z,2.90
2018-10-04T09:45:22.852Z,3.87
2018-10-04T09:47:55.226Z,2.77
2018-10-04T09:50:25.794Z,3.07
2018-10-04T09:52:53.810Z,2.93
2018-10-04T09:55:21.792Z,2.80
2018-10-04T09:57:49.733Z,3.37
2018-10-04T10:00:23.473Z,2.63
2018-10-04T10:02:58.790Z,3.77
2018-10-04T10:05:26.886Z,3.10
2018-10-04T10:07:54.796Z,3.03
2018-10-04T10:10:22.893Z,2.93
2018-10-04T10:12:50.949Z,3.57
2018-10-04T10:15:18.917Z,3.17
2018-10-04T10:17:47.249Z,3.30
2018-10-04T10:20:15.217Z,3.10
2018-10-04T10:22:43.185Z,3.63
2018-10-04T10:25:11.146Z,3.20
2018-10-04T10:27:39.162Z,4.83
2018-10-04T10:30:07.211Z,3.60
2018-10-04T10:32:35.269Z,5.23
2018-10-04T10:35:03.236Z,4.17
2018-10-04T10:37:31.243Z,3.50
2018-10-04T10:39:59.649Z,3.37
2018-10-04T10:42:27.671Z,3.97
2018-10-04T10:44:56.036Z,3.87
2018-10-04T10:47:23.996Z,3.63
2018-10-04T10:49:52.015Z,4.47
2018-10-04T10:52:20.050Z,4.30
2018-10-04T10:54:48.071Z,3.40
2018-10-04T10:57:16.070Z,3.93
2018-10-04T10:59:44.131Z,3.20
2018-10-04T11:02:12.051Z,3.70
2018-10-04T11:04:40.091Z,4.47
2018-10-04T11:07:08.037Z,3.70
2018-10-04T11:09:36.082Z,4.07
2018-10-04T11:12:04.137Z,3.97
2018-10-04T11:14:32.070Z,5.17
2018-10-04T11:17:00.201Z,3.83
2018-10-04T11:19:28.192Z,3.47
2018-10-04T11:21:56.125Z,3.47
2018-10-04T11:24:24.388Z,4.73
2018-10-04T11:26:52.414Z,3.80
2018-10-04T11:29:20.538Z,4.60
2018-10-04T11:31:48.481Z,3.40
2018-10-04T11:34:16.437Z,3.37
2018-10-04T11:36:45.443Z,3.63
2018-10-04T11:39:13.580Z,3.77
2018-10-04T11:41:41.531Z,3.27
2018-10-04T11:44:13.037Z,4.40
2018-10-04T11:46:41.075Z,4.10
2018-10-04T11:49:09.371Z,4.83
2018-10-04T11:51:37.317Z,3.00
2018-10-04T11:54:05.278Z,6.03
2018-10-04T11:56:33.353Z,3.67
2018-10-04T11:59:01.301Z,3.33
2018-10-04T12:01:29.412Z,3.73
2018-10-04T12:03:57.301Z,3.73
2018-10-04T12:06:25.586Z,4.13
2018-10-04T12:08:53.590Z,3.70
2018-10-04T12:11:21.636Z,4.13
2018-10-04T12:13:49.666Z,3.57
2018-10-04T12:16:17.680Z,4.23
2018-10-04T12:18:45.789Z,5.20
2018-10-04T12:21:13.667Z,4.23
2018-10-04T12:23:41.684Z,3.80
2018-10-04T12:26:09.655Z,3.63
2018-10-04T12:28:37.583Z,4.17
2018-10-04T12:31:05.644Z,5.20
2018-10-04T12:33:33.602Z,4.47
2018-10-04T12:36:01.561Z,4.60
2018-10-04T12:38:29.556Z,4.93
2018-10-04T12:40:57.520Z,5.30
2018-10-04T12:43:25.570Z,4.83
2018-10-04T12:45:53.617Z,4.10
2018-10-04T12:48:21.772Z,4.53
2018-10-04T12:50:49.859Z,5.40
2018-10-04T12:53:17.932Z,4.30
2018-10-04T12:55:46.211Z,4.60
2018-10-04T12:58:14.227Z,5.37
2018-10-04T13:00:42.283Z,5.80
2018-10-04T13:03:10.232Z,5.43
2018-10-04T13:05:38.171Z,5.23
2018-10-04T13:08:06.122Z,5.03
2018-10-04T13:10:34.128Z,5.13
2018-10-04T13:13:02.278Z,5.50
2018-10-04T13:15:30.217Z,4.40
2018-10-04T13:17:58.227Z,4.67
2018-10-04T13:20:26.244Z,5.10
2018-10-04T13:22:54.149Z,6.30
2018-10-04T13:25:22.202Z,4.47
2018-10-04T13:27:50.301Z,4.23
2018-10-04T13:30:18.269Z,4.70
2018-10-04T13:32:46.386Z,4.20
2018-10-04T13:35:14.343Z,4.63
2018-10-04T13:37:43.253Z,5.00
2018-10-04T13:40:11.238Z,4.30
2018-10-04T13:42:39.511Z,4.43
2018-10-04T13:45:07.923Z,4.97
2018-10-04T13:47:35.937Z,5.70
2018-10-04T13:50:04.003Z,4.60
2018-10-04T13:52:32.082Z,4.50
2018-10-04T13:55:00.048Z,4.93
2018-10-04T13:57:28.119Z,5.37
2018-10-04T13:59:56.057Z,4.70
2018-10-04T14:02:24.065Z,4.20
2018-10-04T14:04:52.202Z,4.03
2018-10-04T14:07:20.407Z,4.70
2018-10-04T14:09:48.388Z,4.93
2018-10-04T14:12:16.351Z,4.67
2018-10-04T14:14:44.394Z,4.57
2018-10-04T14:17:12.543Z,5.03
2018-10-04T14:19:40.636Z,4.77
2018-10-04T14:22:08.862Z,4.53
2018-10-04T14:24:36.937Z,4.70
2018-10-04T14:27:04.818Z,4.40
2018-10-04T14:29:32.797Z,6.03
2018-10-04T14:32:00.771Z,5.40
2018-10-04T14:34:28.803Z,5.40
2018-10-04T14:36:56.972Z,6.10
2018-10-04T14:39:25.348Z,6.30
2018-10-04T14:41:53.385Z,6.10
2018-10-04T14:44:21.383Z,7.17
2018-10-04T14:46:49.422Z,5.77
2018-10-04T14:49:17.638Z,6.63
2018-10-04T14:51:45.655Z,6.03
2018-10-04T14:54:13.681Z,6.43
2018-10-04T14:56:41.754Z,6.03
2018-10-04T14:59:09.816Z,6.63
2018-10-04T15:01:37.888Z,6.23
2018-10-04T15:04:05.857Z,6.03
2018-10-04T15:06:33.907Z,6.50
2018-10-04T15:09:01.899Z,5.67
2018-10-04T15:11:30.033Z,6.93
2018-10-04T15:13:58.005Z,6.73
2018-10-04T15:16:25.956Z,6.50
2018-10-04T15:18:54.104Z,6.27
2018-10-04T15:21:22.134Z,6.53
2018-10-04T15:23:50.133Z,6.17
2018-10-04T15:26:18.212Z,5.90
2018-10-04T15:28:46.181Z,6.03
2018-10-04T15:31:14.139Z,6.63
2018-10-04T15:33:42.323Z,5.70
2018-10-04T15:36:10.391Z,5.80
2018-10-04T15:38:38.408Z,5.60
2018-10-04T15:41:06.596Z,5.20
2018-10-04T15:43:34.599Z,4.73
2018-10-04T15:46:02.685Z,5.13
2018-10-04T15:48:30.860Z,5.03
2018-10-04T15:50:58.844Z,4.67
2018-10-04T15:53:26.911Z,4.70
2018-10-04T15:55:55.879Z,4.90
2018-10-04T15:58:23.954Z,4.40
2018-10-04T16:00:52.029Z,4.83
2018-10-04T16:03:20.104Z,4.33
2018-10-04T16:05:48.186Z,5.47
2018-10-04T16:08:16.264Z,4.83
2018-10-04T16:10:44.232Z,5.10
2018-10-04T16:13:12.299Z,5.03
2018-10-04T16:15:45.762Z,4.83
2018-10-04T16:18:13.816Z,5.17
2018-10-04T16:20:41.840Z,4.40
2018-10-04T16:23:09.899Z,4.57
2018-10-04T16:25:37.989Z,4.60
2018-10-04T16:28:06.354Z,4.90
2018-10-04T16:30:34.332Z,4.37
2018-10-04T16:33:02.407Z,4.83
2018-10-04T16:35:30.359Z,4.93
2018-10-04T16:37:58.306Z,5.03
2018-10-04T16:40:26.408Z,4.40
2018-10-04T16:42:54.388Z,4.77
2018-10-04T16:45:22.357Z,4.90
2018-10-04T16:47:50.418Z,4.67
2018-10-04T16:50:18.500Z,4.90
2018-10-04T16:52:46.555Z,4.10
2018-10-04T16:55:14.846Z,4.70
2018-10-04T16:57:42.932Z,4.47
2018-10-04T17:00:11.084Z,4.60
2018-10-04T17:02:39.333Z,4.30
2018-10-04T17:05:07.340Z,4.90
2018-10-04T17:07:35.299Z,4.63
2018-10-04T17:10:03.294Z,3.93
2018-10-04T17:12:31.450Z,4.70
2018-10-04T17:14:59.744Z,4.93
2018-10-04T17:17:27.776Z,4.50
2018-10-04T17:19:55.761Z,3.80
2018-10-04T17:22:23.888Z,4.33
2018-10-04T17:24:51.794Z,4.30
2018-10-04T17:27:19.781Z,4.33
2018-10-04T17:29:47.794Z,4.10
2018-10-04T17:32:15.807Z,3.87
2018-10-04T17:34:43.801Z,4.07
2018-10-04T17:37:11.820Z,4.63
2018-10-04T17:39:40.098Z,4.20
2018-10-04T17:42:08.149Z,4.20
2018-10-04T17:44:36.120Z,4.93
2018-10-04T17:47:04.121Z,4.43
2018-10-04T17:49:32.193Z,4.67
2018-10-04T17:52:00.138Z,4.80
2018-10-04T17:54:28.213Z,4.57
2018-10-04T17:56:56.346Z,4.93
2018-10-04T17:59:24.295Z,5.53
2018-10-04T18:01:52.323Z,6.03
2018-10-04T18:04:20.362Z,5.07
2018-10-04T18:06:48.363Z,5.60
2018-10-04T18:09:16.350Z,5.90
2018-10-04T18:11:44.669Z,5.43
2018-10-04T18:14:12.715Z,5.87
2018-10-04T18:16:40.788Z,5.40
2018-10-04T18:19:08.823Z,5.47
2018-10-04T18:21:36.915Z,6.13
2018-10-04T18:24:04.867Z,5.67
2018-10-04T18:26:32.906Z,5.67
2018-10-04T18:29:01.935Z,5.40
2018-10-04T18:31:29.961Z,5.67
2018-10-04T18:33:58.032Z,5.20
2018-10-04T18:36:26.105Z,5.00
2018-10-04T18:38:54.244Z,4.83
2018-10-04T18:41:22.166Z,5.00
2018-10-04T18:43:50.114Z,5.33
2018-10-04T18:46:18.124Z,4.87
2018-10-04T18:48:46.095Z,5.63
2018-10-04T18:51:14.110Z,5.23
2018-10-04T18:53:42.034Z,5.10
2018-10-04T18:56:10.075Z,4.80
2018-10-04T18:58:38.142Z,4.80
2018-10-04T19:01:06.212Z,5.10
2018-10-04T19:03:34.219Z,5.33
2018-10-04T19:06:02.368Z,5.80
2018-10-04T19:08:30.330Z,5.47
2018-10-04T19:10:58.295Z,8.57
2018-10-04T19:13:26.338Z,6.13
2018-10-04T19:15:54.367Z,5.13
2018-10-04T19:18:22.309Z,5.23
2018-10-04T19:20:50.351Z,5.00
2018-10-04T19:23:18.342Z,5.00
2018-10-04T19:25:46.358Z,5.13
2018-10-04T19:28:14.420Z,5.47
2018-10-04T19:30:42.412Z,5.47
2018-10-04T19:33:10.643Z,5.93
2018-10-04T19:35:38.637Z,5.70
2018-10-04T19:38:06.780Z,5.60
2018-10-04T19:40:34.951Z,5.87
2018-10-04T19:43:02.963Z,6.30
2018-10-04T19:45:30.940Z,6.30
2018-10-04T19:47:58.967Z,5.97
2018-10-04T19:50:27.039Z,5.83
2018-10-04T19:52:55.080Z,5.73
2018-10-04T19:55:23.129Z,6.03
2018-10-04T19:57:52.220Z,6.30
2018-10-04T20:00:20.223Z,5.13
2018-10-04T20:02:48.319Z,6.63
2018-10-04T20:05:16.252Z,6.10
2018-10-04T20:07:44.215Z,6.07
2018-10-04T20:10:12.181Z,5.83
2018-10-04T20:12:40.133Z,5.57
2018-10-04T20:15:08.117Z,6.00
2018-10-04T20:17:36.100Z,6.40
2018-10-04T20:20:04.707Z,5.93
2018-10-04T20:22:32.741Z,7.07
2018-10-04T20:25:00.772Z,6.37
2018-10-04T20:27:28.719Z,5.80
2018-10-04T20:29:56.735Z,7.17
2018-10-04T20:32:28.286Z,6.17
2018-10-04T20:34:57.012Z,6.50
2018-10-04T20:37:24.887Z,6.10
2018-10-04T20:39:52.831Z,6.73
2018-10-04T20:42:20.771Z,5.90
2018-10-04T20:44:48.799Z,6.40
2018-10-04T20:47:16.822Z,6.80
2018-10-04T20:49:44.764Z,5.47
2018-10-04T20:52:13.150Z,6.83
2018-10-04T20:54:41.070Z,6.07
2018-10-04T20:57:09.053Z,6.97
2018-10-04T20:59:37.039Z,6.07
2018-10-04T21:02:05.023Z,5.70
2018-10-04T21:04:33.032Z,6.63
2018-10-04T21:07:01.078Z,6.37
2018-10-04T21:09:29.139Z,9.27
2018-10-04T21:11:57.097Z,7.70
2018-10-04T21:14:25.080Z,6.80
2018-10-04T21:16:53.115Z,6.20
2018-10-04T21:19:21.221Z,6.10
2018-10-04T21:21:49.274Z,5.93
2018-10-04T21:24:17.269Z,5.90
2018-10-04T21:26:45.232Z,6.00
2018-10-04T21:29:13.228Z,6.23
2018-10-04T21:31:41.197Z,6.40
2018-10-04T21:34:09.144Z,6.37
2018-10-04T21:36:37.175Z,5.87
2018-10-04T21:39:05.903Z,6.37
2018-10-04T21:41:33.983Z,6.10
2018-10-04T21:44:01.932Z,6.03
2018-10-04T21:46:29.916Z,6.03
2018-10-04T21:48:59.577Z,6.20
2018-10-04T21:51:27.518Z,5.87
2018-10-04T21:53:55.573Z,5.80
2018-10-04T21:56:23.506Z,6.73
2018-10-04T21:58:51.616Z,6.50
2018-10-04T22:01:19.871Z,6.63
2018-10-04T22:03:48.274Z,6.07
2018-10-04T22:06:16.543Z,5.40
2018-10-04T22:08:44.545Z,6.37
2018-10-04T22:11:12.465Z,6.47
2018-10-04T22:13:40.552Z,8.70
2018-10-04T22:16:08.621Z,6.77
2018-10-04T22:18:36.639Z,6.10
2018-10-04T22:21:04.678Z,5.87
2018-10-04T22:23:32.937Z,5.97
2018-10-04T22:26:00.912Z,5.30
2018-10-04T22:28:28.856Z,5.67
2018-10-04T22:30:56.855Z,6.33
2018-10-04T22:33:24.787Z,5.53
2018-10-04T22:35:52.898Z,5.17
2018-10-04T22:38:20.860Z,5.97
2018-10-04T22:40:48.798Z,5.60
2018-10-04T22:43:16.807Z,6.20
2018-10-04T22:45:44.760Z,5.50
2018-10-04T22:48:12.739Z,6.03
2018-10-04T22:50:40.687Z,5.60
2018-10-04T22:53:08.673Z,5.17
2018-10-04T22:55:36.631Z,5.27
2018-10-04T22:58:04.722Z,6.63
2018-10-04T23:00:33.540Z,5.70
2018-10-04T23:03:01.574Z,5.70
2018-10-04T23:05:29.521Z,5.37
2018-10-04T23:07:57.458Z,5.53
2018-10-04T23:10:25.491Z,6.27
2018-10-04T23:12:53.447Z,6.50
2018-10-04T23:15:21.671Z,6.10
2018-10-04T23:17:49.824Z,6.17
2018-10-04T23:20:17.939Z,6.00
2018-10-04T23:22:45.951Z,6.07
2018-10-04T23:25:13.928Z,6.43
2018-10-04T23:27:41.894Z,6.23
2018-10-04T23:30:10.467Z,5.67
2018-10-04T23:32:38.424Z,6.10
2018-10-04T23:35:06.408Z,5.77
2018-10-04T23:37:34.424Z,6.33
2018-10-04T23:40:02.468Z,6.37
2018-10-04T23:42:30.428Z,7.37
2018-10-04T23:44:58.813Z,6.57
2018-10-04T23:47:26.828Z,6.57
2018-10-04T23:49:54.887Z,6.90
2018-10-04T23:52:23.226Z,6.80
2018-10-04T23:54:51.198Z,6.87
2018-10-04T23:57:19.189Z,6.20
2018-10-04T23:59:47.135Z,6.57
